sensor_id;sensor_type;location;lat;lon;timestamp;temperature;humidity
16301;DHT22;8258;51.020;4.248;2022-12-07T00:00:51;4.00;99.90
16301;DHT22;8258;51.020;4.248;2022-12-07T00:03:18;4.10;99.90
16301;DHT22;8258;51.020;4.248;2022-12-07T00:05:45;4.10;99.90
16301;DHT22;8258;51.020;4.248;2022-12-07T00:08:12;4.00;99.90
16301;DHT22;8258;51.020;4.248;2022-12-07T00:10:40;4.00;99.90
16301;DHT22;8258;51.020;4.248;2022-12-07T00:13:07;3.90;99.90
16301;DHT22;8258;51.020;4.248;2022-12-07T00:15:34;3.90;99.90
16301;DHT22;8258;51.020;4.248;2022-12-07T00:18:02;3.90;99.90
16301;DHT22;8258;51.020;4.248;2022-12-07T00:20:29;3.90;99.90
16301;DHT22;8258;51.020;4.248;2022-12-07T00:22:56;3.90;99.90
16301;DHT22;8258;51.020;4.248;2022-12-07T00:25:23;3.90;99.90
16301;DHT22;8258;51.020;4.248;2022-12-07T00:27:52;3.80;99.90
16301;DHT22;8258;51.020;4.248;2022-12-07T00:30:19;3.80;99.90
16301;DHT22;8258;51.020;4.248;2022-12-07T00:32:45;3.70;99.90
16301;DHT22;8258;51.020;4.248;2022-12-07T00:35:13;3.70;99.90
16301;DHT22;8258;51.020;4.248;2022-12-07T00:37:40;3.70;99.90
16301;DHT22;8258;51.020;4.248;2022-12-07T00:40:07;3.60;99.90
16301;DHT22;8258;51.020;4.248;2022-12-07T00:42:34;3.60;99.90
16301;DHT22;8258;51.020;4.248;2022-12-07T00:45:03;3.60;99.90
16301;DHT22;8258;51.020;4.248;2022-12-07T00:47:30;3.60;99.90
16301;DHT22;8258;51.020;4.248;2022-12-07T00:49:57;3.60;99.90
16301;DHT22;8258;51.020;4.248;2022-12-07T00:52:25;3.60;99.90
16301;DHT22;8258;51.020;4.248;2022-12-07T00:54:52;3.60;99.90
16301;DHT22;8258;51.020;4.248;2022-12-07T00:57:19;3.70;99.90
16301;DHT22;8258;51.020;4.248;2022-12-07T00:59:46;3.70;99.90
16301;DHT22;8258;51.020;4.248;2022-12-07T01:02:14;3.70;99.90
16301;DHT22;8258;51.020;4.248;2022-12-07T01:04:41;3.70;99.90
16301;DHT22;8258;51.020;4.248;2022-12-07T01:07:08;3.60;99.90
16301;DHT22;8258;51.020;4.248;2022-12-07T01:09:35;3.60;99.90
16301;DHT22;8258;51.020;4.248;2022-12-07T01:12:02;3.60;99.90
16301;DHT22;8258;51.020;4.248;2022-12-07T01:14:29;3.70;99.90
16301;DHT22;8258;51.020;4.248;2022-12-07T01:16:56;3.90;99.90
16301;DHT22;8258;51.020;4.248;2022-12-07T01:19:24;3.90;99.90
16301;DHT22;8258;51.020;4.248;2022-12-07T01:21:51;4.00;99.90
16301;DHT22;8258;51.020;4.248;2022-12-07T01:24:18;4.00;99.90
16301;DHT22;8258;51.020;4.248;2022-12-07T01:26:44;4.10;99.90
16301;DHT22;8258;51.020;4.248;2022-12-07T01:29:13;4.20;99.90
16301;DHT22;8258;51.020;4.248;2022-12-07T01:31:40;4.30;99.90
16301;DHT22;8258;51.020;4.248;2022-12-07T01:34:07;4.40;99.90
16301;DHT22;8258;51.020;4.248;2022-12-07T01:36:36;4.30;99.90
16301;DHT22;8258;51.020;4.248;2022-12-07T01:39:05;4.30;99.90
16301;DHT22;8258;51.020;4.248;2022-12-07T01:41:34;4.30;99.90
16301;DHT22;8258;51.020;4.248;2022-12-07T01:44:16;4.20;99.90
16301;DHT22;8258;51.020;4.248;2022-12-07T01:46:45;4.30;99.90
16301;DHT22;8258;51.020;4.248;2022-12-07T01:49:17;4.20;99.90
16301;DHT22;8258;51.020;4.248;2022-12-07T01:51:48;4.20;99.90
16301;DHT22;8258;51.020;4.248;2022-12-07T01:54:16;4.10;99.90
16301;DHT22;8258;51.020;4.248;2022-12-07T01:56:47;4.20;99.90
16301;DHT22;8258;51.020;4.248;2022-12-07T01:59:17;4.20;99.90
16301;DHT22;8258;51.020;4.248;2022-12-07T02:01:44;4.30;99.90
16301;DHT22;8258;51.020;4.248;2022-12-07T02:04:12;4.40;99.90
16301;DHT22;8258;51.020;4.248;2022-12-07T02:06:40;4.40;99.90
16301;DHT22;8258;51.020;4.248;2022-12-07T02:09:09;4.40;99.90
16301;DHT22;8258;51.020;4.248;2022-12-07T02:11:36;4.40;99.90
16301;DHT22;8258;51.020;4.248;2022-12-07T02:14:04;4.40;99.90
16301;DHT22;8258;51.020;4.248;2022-12-07T02:16:37;4.40;99.90
16301;DHT22;8258;51.020;4.248;2022-12-07T02:19:30;4.20;99.90
16301;DHT22;8258;51.020;4.248;2022-12-07T02:22:18;4.20;99.90
16301;DHT22;8258;51.020;4.248;2022-12-07T02:24:53;4.00;99.90
16301;DHT22;8258;51.020;4.248;2022-12-07T02:27:38;3.90;99.90
16301;DHT22;8258;51.020;4.248;2022-12-07T02:30:08;3.80;99.90
16301;DHT22;8258;51.020;4.248;2022-12-07T02:32:43;3.80;99.90
16301;DHT22;8258;51.020;4.248;2022-12-07T02:35:15;3.90;99.90
16301;DHT22;8258;51.020;4.248;2022-12-07T02:37:51;3.90;99.90
16301;DHT22;8258;51.020;4.248;2022-12-07T02:40:24;3.90;99.90
16301;DHT22;8258;51.020;4.248;2022-12-07T02:42:57;3.90;99.90
16301;DHT22;8258;51.020;4.248;2022-12-07T02:45:27;3.90;99.90
16301;DHT22;8258;51.020;4.248;2022-12-07T02:47:59;3.90;99.90
16301;DHT22;8258;51.020;4.248;2022-12-07T02:50:28;3.90;99.90
16301;DHT22;8258;51.020;4.248;2022-12-07T02:52:55;4.00;99.90
16301;DHT22;8258;51.020;4.248;2022-12-07T02:55:26;4.10;99.90
16301;DHT22;8258;51.020;4.248;2022-12-07T02:58:11;4.10;99.90
16301;DHT22;8258;51.020;4.248;2022-12-07T03:00:47;4.20;99.90
16301;DHT22;8258;51.020;4.248;2022-12-07T03:03:17;4.30;99.90
16301;DHT22;8258;51.020;4.248;2022-12-07T03:05:54;4.20;99.90
16301;DHT22;8258;51.020;4.248;2022-12-07T03:08:31;4.20;99.90
16301;DHT22;8258;51.020;4.248;2022-12-07T03:11:03;4.20;99.90
16301;DHT22;8258;51.020;4.248;2022-12-07T03:13:34;4.20;99.90
16301;DHT22;8258;51.020;4.248;2022-12-07T03:16:09;4.20;99.90
16301;DHT22;8258;51.020;4.248;2022-12-07T03:18:40;4.10;99.90
16301;DHT22;8258;51.020;4.248;2022-12-07T03:21:11;4.20;99.90
16301;DHT22;8258;51.020;4.248;2022-12-07T03:23:42;4.20;99.90
16301;DHT22;8258;51.020;4.248;2022-12-07T03:26:13;4.20;99.90
16301;DHT22;8258;51.020;4.248;2022-12-07T03:28:45;4.10;99.90
16301;DHT22;8258;51.020;4.248;2022-12-07T03:31:18;4.00;99.90
16301;DHT22;8258;51.020;4.248;2022-12-07T03:33:51;4.00;99.90
16301;DHT22;8258;51.020;4.248;2022-12-07T03:36:22;3.90;99.90
16301;DHT22;8258;51.020;4.248;2022-12-07T03:38:55;3.90;99.90
16301;DHT22;8258;51.020;4.248;2022-12-07T03:41:26;3.80;99.90
16301;DHT22;8258;51.020;4.248;2022-12-07T03:43:54;3.80;99.90
16301;DHT22;8258;51.020;4.248;2022-12-07T03:46:31;3.70;99.90
16301;DHT22;8258;51.020;4.248;2022-12-07T03:49:08;3.70;99.90
16301;DHT22;8258;51.020;4.248;2022-12-07T03:51:40;3.70;99.90
16301;DHT22;8258;51.020;4.248;2022-12-07T03:54:11;3.60;99.90
16301;DHT22;8258;51.020;4.248;2022-12-07T03:56:40;3.50;99.90
16301;DHT22;8258;51.020;4.248;2022-12-07T03:59:09;3.50;99.90
16301;DHT22;8258;51.020;4.248;2022-12-07T04:01:41;3.50;99.90
16301;DHT22;8258;51.020;4.248;2022-12-07T04:04:08;3.50;99.90
16301;DHT22;8258;51.020;4.248;2022-12-07T04:06:35;3.60;99.90
16301;DHT22;8258;51.020;4.248;2022-12-07T04:09:02;3.80;99.90
16301;DHT22;8258;51.020;4.248;2022-12-07T04:11:29;3.90;99.90
16301;DHT22;8258;51.020;4.248;2022-12-07T04:13:56;3.90;99.90
16301;DHT22;8258;51.020;4.248;2022-12-07T04:16:41;4.00;99.90
16301;DHT22;8258;51.020;4.248;2022-12-07T04:19:08;4.10;99.90
16301;DHT22;8258;51.020;4.248;2022-12-07T04:21:35;4.10;99.90
16301;DHT22;8258;51.020;4.248;2022-12-07T04:24:02;4.10;99.90
16301;DHT22;8258;51.020;4.248;2022-12-07T04:26:29;4.10;99.90
16301;DHT22;8258;51.020;4.248;2022-12-07T04:28:56;4.00;99.90
16301;DHT22;8258;51.020;4.248;2022-12-07T04:31:23;3.90;99.90
16301;DHT22;8258;51.020;4.248;2022-12-07T04:33:51;3.70;99.90
16301;DHT22;8258;51.020;4.248;2022-12-07T04:36:18;3.60;99.90
16301;DHT22;8258;51.020;4.248;2022-12-07T04:38:46;3.50;99.90
16301;DHT22;8258;51.020;4.248;2022-12-07T04:41:13;3.50;99.90
16301;DHT22;8258;51.020;4.248;2022-12-07T04:43:40;3.40;99.90
16301;DHT22;8258;51.020;4.248;2022-12-07T04:46:07;3.40;99.90
16301;DHT22;8258;51.020;4.248;2022-12-07T04:48:34;3.30;99.90
16301;DHT22;8258;51.020;4.248;2022-12-07T04:51:04;3.30;99.90
16301;DHT22;8258;51.020;4.248;2022-12-07T04:53:31;3.20;99.90
16301;DHT22;8258;51.020;4.248;2022-12-07T04:55:58;3.20;99.90
16301;DHT22;8258;51.020;4.248;2022-12-07T04:58:26;3.20;99.90
16301;DHT22;8258;51.020;4.248;2022-12-07T05:00:54;3.30;99.90
16301;DHT22;8258;51.020;4.248;2022-12-07T05:03:22;3.30;99.90
16301;DHT22;8258;51.020;4.248;2022-12-07T05:05:48;3.30;99.90
16301;DHT22;8258;51.020;4.248;2022-12-07T05:08:17;3.30;99.90
16301;DHT22;8258;51.020;4.248;2022-12-07T05:10:44;3.20;99.90
16301;DHT22;8258;51.020;4.248;2022-12-07T05:13:11;3.20;99.90
16301;DHT22;8258;51.020;4.248;2022-12-07T05:15:38;3.20;99.90
16301;DHT22;8258;51.020;4.248;2022-12-07T05:18:05;3.20;99.90
16301;DHT22;8258;51.020;4.248;2022-12-07T05:20:31;3.30;99.90
16301;DHT22;8258;51.020;4.248;2022-12-07T05:22:58;3.40;99.90
16301;DHT22;8258;51.020;4.248;2022-12-07T05:25:27;3.50;99.90
16301;DHT22;8258;51.020;4.248;2022-12-07T05:27:55;3.60;99.90
16301;DHT22;8258;51.020;4.248;2022-12-07T05:30:22;3.50;99.90
16301;DHT22;8258;51.020;4.248;2022-12-07T05:32:49;3.60;99.90
16301;DHT22;8258;51.020;4.248;2022-12-07T05:35:16;3.70;99.90
16301;DHT22;8258;51.020;4.248;2022-12-07T05:37:43;3.70;99.90
16301;DHT22;8258;51.020;4.248;2022-12-07T05:40:11;3.60;99.90
16301;DHT22;8258;51.020;4.248;2022-12-07T05:42:40;3.60;99.90
16301;DHT22;8258;51.020;4.248;2022-12-07T05:45:08;3.60;99.90
16301;DHT22;8258;51.020;4.248;2022-12-07T05:47:36;3.60;99.90
16301;DHT22;8258;51.020;4.248;2022-12-07T05:50:04;3.60;99.90
16301;DHT22;8258;51.020;4.248;2022-12-07T05:52:32;3.60;99.90
16301;DHT22;8258;51.020;4.248;2022-12-07T05:54:59;3.60;99.90
16301;DHT22;8258;51.020;4.248;2022-12-07T05:57:25;3.60;99.90
16301;DHT22;8258;51.020;4.248;2022-12-07T05:59:54;3.60;99.90
16301;DHT22;8258;51.020;4.248;2022-12-07T06:02:20;3.60;99.90
16301;DHT22;8258;51.020;4.248;2022-12-07T06:04:47;3.50;99.90
16301;DHT22;8258;51.020;4.248;2022-12-07T06:07:15;3.60;99.90
16301;DHT22;8258;51.020;4.248;2022-12-07T06:09:42;3.60;99.90
16301;DHT22;8258;51.020;4.248;2022-12-07T06:12:09;3.60;99.90
16301;DHT22;8258;51.020;4.248;2022-12-07T06:14:55;3.60;99.90
16301;DHT22;8258;51.020;4.248;2022-12-07T06:17:22;3.70;99.90
16301;DHT22;8258;51.020;4.248;2022-12-07T06:19:49;3.70;99.90
16301;DHT22;8258;51.020;4.248;2022-12-07T06:22:16;3.70;99.90
16301;DHT22;8258;51.020;4.248;2022-12-07T06:24:43;3.70;99.90
16301;DHT22;8258;51.020;4.248;2022-12-07T06:27:10;3.70;99.90
16301;DHT22;8258;51.020;4.248;2022-12-07T06:29:37;3.80;99.90
16301;DHT22;8258;51.020;4.248;2022-12-07T06:32:06;3.80;99.90
16301;DHT22;8258;51.020;4.248;2022-12-07T06:34:33;3.80;99.90
16301;DHT22;8258;51.020;4.248;2022-12-07T06:37:00;3.80;99.90
16301;DHT22;8258;51.020;4.248;2022-12-07T06:39:28;3.90;99.90
16301;DHT22;8258;51.020;4.248;2022-12-07T06:41:56;4.00;99.90
16301;DHT22;8258;51.020;4.248;2022-12-07T06:44:23;3.90;99.90
16301;DHT22;8258;51.020;4.248;2022-12-07T06:46:51;3.90;99.90
16301;DHT22;8258;51.020;4.248;2022-12-07T06:49:19;3.90;99.90
16301;DHT22;8258;51.020;4.248;2022-12-07T06:51:46;3.90;99.90
16301;DHT22;8258;51.020;4.248;2022-12-07T06:54:15;3.80;99.90
16301;DHT22;8258;51.020;4.248;2022-12-07T06:56:42;3.80;99.90
16301;DHT22;8258;51.020;4.248;2022-12-07T06:59:09;3.80;99.90
16301;DHT22;8258;51.020;4.248;2022-12-07T07:01:36;3.80;99.90
16301;DHT22;8258;51.020;4.248;2022-12-07T07:04:03;3.70;99.90
16301;DHT22;8258;51.020;4.248;2022-12-07T07:06:32;3.70;99.90
16301;DHT22;8258;51.020;4.248;2022-12-07T07:08:59;3.70;99.90
16301;DHT22;8258;51.020;4.248;2022-12-07T07:11:26;3.80;99.90
16301;DHT22;8258;51.020;4.248;2022-12-07T07:13:53;3.80;99.90
16301;DHT22;8258;51.020;4.248;2022-12-07T07:16:22;3.60;99.90
16301;DHT22;8258;51.020;4.248;2022-12-07T07:18:49;3.50;99.90
16301;DHT22;8258;51.020;4.248;2022-12-07T07:21:16;3.50;99.90
16301;DHT22;8258;51.020;4.248;2022-12-07T07:23:45;3.40;99.90
16301;DHT22;8258;51.020;4.248;2022-12-07T07:26:11;3.30;99.90
16301;DHT22;8258;51.020;4.248;2022-12-07T07:28:39;3.20;99.90
16301;DHT22;8258;51.020;4.248;2022-12-07T07:31:06;3.20;99.90
16301;DHT22;8258;51.020;4.248;2022-12-07T07:33:33;3.20;99.90
16301;DHT22;8258;51.020;4.248;2022-12-07T07:36:00;3.20;99.90
16301;DHT22;8258;51.020;4.248;2022-12-07T07:38:26;3.10;99.90
16301;DHT22;8258;51.020;4.248;2022-12-07T07:40:55;3.10;99.90
16301;DHT22;8258;51.020;4.248;2022-12-07T07:43:21;3.10;99.90
16301;DHT22;8258;51.020;4.248;2022-12-07T07:45:48;3.10;99.90
16301;DHT22;8258;51.020;4.248;2022-12-07T07:48:17;3.10;99.90
16301;DHT22;8258;51.020;4.248;2022-12-07T07:50:44;3.10;99.90
16301;DHT22;8258;51.020;4.248;2022-12-07T07:53:12;3.10;99.90
16301;DHT22;8258;51.020;4.248;2022-12-07T07:55:39;3.10;99.90
16301;DHT22;8258;51.020;4.248;2022-12-07T07:58:07;3.10;99.90
16301;DHT22;8258;51.020;4.248;2022-12-07T08:00:34;3.20;99.90
16301;DHT22;8258;51.020;4.248;2022-12-07T08:03:01;3.20;99.90
16301;DHT22;8258;51.020;4.248;2022-12-07T08:05:28;3.30;99.90
16301;DHT22;8258;51.020;4.248;2022-12-07T08:07:55;3.40;99.90
16301;DHT22;8258;51.020;4.248;2022-12-07T08:10:23;3.90;99.90
16301;DHT22;8258;51.020;4.248;2022-12-07T08:12:50;4.70;99.90
16301;DHT22;8258;51.020;4.248;2022-12-07T08:15:37;4.90;99.90
16301;DHT22;8258;51.020;4.248;2022-12-07T08:18:04;5.10;99.90
16301;DHT22;8258;51.020;4.248;2022-12-07T08:20:31;5.20;99.90
16301;DHT22;8258;51.020;4.248;2022-12-07T08:22:59;5.50;99.90
16301;DHT22;8258;51.020;4.248;2022-12-07T08:25:26;6.20;99.90
16301;DHT22;8258;51.020;4.248;2022-12-07T08:27:53;6.70;99.90
16301;DHT22;8258;51.020;4.248;2022-12-07T08:30:22;7.30;99.90
16301;DHT22;8258;51.020;4.248;2022-12-07T08:32:50;7.50;99.90
16301;DHT22;8258;51.020;4.248;2022-12-07T08:35:18;7.50;99.90
16301;DHT22;8258;51.020;4.248;2022-12-07T08:37:44;7.20;99.90
16301;DHT22;8258;51.020;4.248;2022-12-07T08:40:12;6.70;99.90
16301;DHT22;8258;51.020;4.248;2022-12-07T08:42:41;6.20;99.90
16301;DHT22;8258;51.020;4.248;2022-12-07T08:45:10;5.90;99.90
16301;DHT22;8258;51.020;4.248;2022-12-07T08:47:43;5.80;99.90
16301;DHT22;8258;51.020;4.248;2022-12-07T08:50:13;5.90;99.90
16301;DHT22;8258;51.020;4.248;2022-12-07T08:52:41;5.70;99.90
16301;DHT22;8258;51.020;4.248;2022-12-07T08:55:10;5.60;99.90
16301;DHT22;8258;51.020;4.248;2022-12-07T08:57:38;5.60;99.90
16301;DHT22;8258;51.020;4.248;2022-12-07T09:00:07;5.20;99.90
16301;DHT22;8258;51.020;4.248;2022-12-07T09:02:34;5.10;99.90
16301;DHT22;8258;51.020;4.248;2022-12-07T09:05:02;5.00;99.90
16301;DHT22;8258;51.020;4.248;2022-12-07T09:07:32;5.10;99.90
16301;DHT22;8258;51.020;4.248;2022-12-07T09:10:01;5.30;99.90
16301;DHT22;8258;51.020;4.248;2022-12-07T09:12:28;5.30;99.90
16301;DHT22;8258;51.020;4.248;2022-12-07T09:14:54;5.30;99.90
16301;DHT22;8258;51.020;4.248;2022-12-07T09:17:21;5.40;99.90
16301;DHT22;8258;51.020;4.248;2022-12-07T09:19:48;5.40;99.90
16301;DHT22;8258;51.020;4.248;2022-12-07T09:22:15;5.50;99.90
16301;DHT22;8258;51.020;4.248;2022-12-07T09:24:44;5.50;99.90
16301;DHT22;8258;51.020;4.248;2022-12-07T09:27:11;5.60;99.90
16301;DHT22;8258;51.020;4.248;2022-12-07T09:29:38;5.60;99.90
16301;DHT22;8258;51.020;4.248;2022-12-07T09:32:05;5.70;99.90
16301;DHT22;8258;51.020;4.248;2022-12-07T09:34:32;5.80;99.90
16301;DHT22;8258;51.020;4.248;2022-12-07T09:37:01;5.80;99.90
16301;DHT22;8258;51.020;4.248;2022-12-07T09:39:28;5.80;99.90
16301;DHT22;8258;51.020;4.248;2022-12-07T09:41:57;5.60;99.90
16301;DHT22;8258;51.020;4.248;2022-12-07T09:44:26;5.70;99.90
16301;DHT22;8258;51.020;4.248;2022-12-07T09:46:54;5.70;99.90
16301;DHT22;8258;51.020;4.248;2022-12-07T09:49:23;5.60;99.90
16301;DHT22;8258;51.020;4.248;2022-12-07T09:52:00;5.80;99.90
16301;DHT22;8258;51.020;4.248;2022-12-07T09:54:29;5.90;99.90
16301;DHT22;8258;51.020;4.248;2022-12-07T09:56:58;5.90;99.90
16301;DHT22;8258;51.020;4.248;2022-12-07T09:59:25;6.00;99.90
16301;DHT22;8258;51.020;4.248;2022-12-07T10:01:52;6.20;99.90
16301;DHT22;8258;51.020;4.248;2022-12-07T10:04:21;6.50;99.90
16301;DHT22;8258;51.020;4.248;2022-12-07T10:06:48;7.10;99.90
16301;DHT22;8258;51.020;4.248;2022-12-07T10:09:18;7.60;99.90
16301;DHT22;8258;51.020;4.248;2022-12-07T10:12:07;7.70;99.90
16301;DHT22;8258;51.020;4.248;2022-12-07T10:14:36;7.30;99.90
16301;DHT22;8258;51.020;4.248;2022-12-07T10:17:31;7.00;99.90
16301;DHT22;8258;51.020;4.248;2022-12-07T10:20:16;6.70;99.90
16301;DHT22;8258;51.020;4.248;2022-12-07T10:22:58;6.60;99.90
16301;DHT22;8258;51.020;4.248;2022-12-07T10:25:27;6.90;99.90
16301;DHT22;8258;51.020;4.248;2022-12-07T10:28:09;8.30;99.90
16301;DHT22;8258;51.020;4.248;2022-12-07T10:30:51;10.10;99.90
16301;DHT22;8258;51.020;4.248;2022-12-07T10:33:32;10.70;99.90
16301;DHT22;8258;51.020;4.248;2022-12-07T10:36:00;10.30;99.90
16301;DHT22;8258;51.020;4.248;2022-12-07T10:38:28;10.60;99.90
16301;DHT22;8258;51.020;4.248;2022-12-07T10:41:05;9.90;99.90
16301;DHT22;8258;51.020;4.248;2022-12-07T10:43:34;9.70;99.90
16301;DHT22;8258;51.020;4.248;2022-12-07T10:49:11;9.00;99.90
16301;DHT22;8258;51.020;4.248;2022-12-07T10:51:49;9.10;99.90
16301;DHT22;8258;51.020;4.248;2022-12-07T10:54:23;9.40;99.90
16301;DHT22;8258;51.020;4.248;2022-12-07T10:57:04;9.90;99.90
16301;DHT22;8258;51.020;4.248;2022-12-07T10:59:56;10.40;99.90
16301;DHT22;8258;51.020;4.248;2022-12-07T11:02:37;11.40;99.90
16301;DHT22;8258;51.020;4.248;2022-12-07T11:05:17;12.60;99.90
16301;DHT22;8258;51.020;4.248;2022-12-07T11:07:58;13.60;99.90
16301;DHT22;8258;51.020;4.248;2022-12-07T11:10:30;13.40;99.90
16301;DHT22;8258;51.020;4.248;2022-12-07T11:13:28;13.10;99.90
16301;DHT22;8258;51.020;4.248;2022-12-07T11:16:41;13.70;99.90
16301;DHT22;8258;51.020;4.248;2022-12-07T11:19:23;13.60;99.90
16301;DHT22;8258;51.020;4.248;2022-12-07T11:21:57;14.30;99.90
16301;DHT22;8258;51.020;4.248;2022-12-07T11:24:30;14.60;99.90
16301;DHT22;8258;51.020;4.248;2022-12-07T11:27:14;14.80;99.90
16301;DHT22;8258;51.020;4.248;2022-12-07T11:29:55;15.10;99.90
16301;DHT22;8258;51.020;4.248;2022-12-07T11:32:44;15.40;99.90
16301;DHT22;8258;51.020;4.248;2022-12-07T11:35:20;15.30;99.90
16301;DHT22;8258;51.020;4.248;2022-12-07T11:37:49;14.30;99.90
16301;DHT22;8258;51.020;4.248;2022-12-07T11:40:23;14.30;99.90
16301;DHT22;8258;51.020;4.248;2022-12-07T11:42:57;14.70;99.90
16301;DHT22;8258;51.020;4.248;2022-12-07T11:45:27;15.20;99.90
16301;DHT22;8258;51.020;4.248;2022-12-07T11:48:00;15.20;99.90
16301;DHT22;8258;51.020;4.248;2022-12-07T11:50:33;14.70;99.90
16301;DHT22;8258;51.020;4.248;2022-12-07T11:53:05;14.40;99.90
16301;DHT22;8258;51.020;4.248;2022-12-07T11:55:43;14.40;99.90
16301;DHT22;8258;51.020;4.248;2022-12-07T11:58:20;14.40;99.90
16301;DHT22;8258;51.020;4.248;2022-12-07T12:00:49;13.90;99.90
16301;DHT22;8258;51.020;4.248;2022-12-07T12:03:25;13.40;99.90
16301;DHT22;8258;51.020;4.248;2022-12-07T12:05:55;13.10;99.90
16301;DHT22;8258;51.020;4.248;2022-12-07T12:08:28;12.80;99.90
16301;DHT22;8258;51.020;4.248;2022-12-07T12:11:02;11.80;99.90
16301;DHT22;8258;51.020;4.248;2022-12-07T12:17:04;11.00;99.90
16301;DHT22;8258;51.020;4.248;2022-12-07T12:19:40;10.50;99.90
16301;DHT22;8258;51.020;4.248;2022-12-07T12:22:14;10.60;99.90
16301;DHT22;8258;51.020;4.248;2022-12-07T12:24:42;10.80;99.90
16301;DHT22;8258;51.020;4.248;2022-12-07T12:27:15;10.70;99.90
16301;DHT22;8258;51.020;4.248;2022-12-07T12:29:44;10.90;99.90
16301;DHT22;8258;51.020;4.248;2022-12-07T12:32:21;10.80;99.90
16301;DHT22;8258;51.020;4.248;2022-12-07T12:35:02;10.70;99.90
16301;DHT22;8258;51.020;4.248;2022-12-07T12:37:44;10.40;99.90
16301;DHT22;8258;51.020;4.248;2022-12-07T12:43:40;9.60;99.90
16301;DHT22;8258;51.020;4.248;2022-12-07T12:46:36;9.50;99.90
16301;DHT22;8258;51.020;4.248;2022-12-07T12:55:15;9.70;99.90
16301;DHT22;8258;51.020;4.248;2022-12-07T12:57:46;9.90;99.90
16301;DHT22;8258;51.020;4.248;2022-12-07T13:00:17;9.80;99.90
16301;DHT22;8258;51.020;4.248;2022-12-07T13:02:49;9.60;99.90
16301;DHT22;8258;51.020;4.248;2022-12-07T13:05:19;9.50;99.90
16301;DHT22;8258;51.020;4.248;2022-12-07T13:08:00;9.30;99.90
16301;DHT22;8258;51.020;4.248;2022-12-07T13:10:38;9.30;99.90
16301;DHT22;8258;51.020;4.248;2022-12-07T13:13:30;9.20;99.90
16301;DHT22;8258;51.020;4.248;2022-12-07T13:18:57;9.50;99.90
16301;DHT22;8258;51.020;4.248;2022-12-07T13:21:43;9.90;99.90
16301;DHT22;8258;51.020;4.248;2022-12-07T13:24:12;10.30;99.90
16301;DHT22;8258;51.020;4.248;2022-12-07T13:26:42;10.50;99.90
16301;DHT22;8258;51.020;4.248;2022-12-07T13:29:12;10.20;99.90
16301;DHT22;8258;51.020;4.248;2022-12-07T13:31:41;9.40;99.90
16301;DHT22;8258;51.020;4.248;2022-12-07T13:34:30;8.60;99.90
16301;DHT22;8258;51.020;4.248;2022-12-07T13:36:58;8.00;99.90
16301;DHT22;8258;51.020;4.248;2022-12-07T13:39:27;7.80;99.90
16301;DHT22;8258;51.020;4.248;2022-12-07T13:41:57;7.60;99.90
16301;DHT22;8258;51.020;4.248;2022-12-07T13:44:26;7.40;99.90
16301;DHT22;8258;51.020;4.248;2022-12-07T13:46:59;7.20;99.90
16301;DHT22;8258;51.020;4.248;2022-12-07T13:49:29;7.10;99.90
16301;DHT22;8258;51.020;4.248;2022-12-07T13:52:13;7.10;99.90
16301;DHT22;8258;51.020;4.248;2022-12-07T13:54:44;7.10;99.90
16301;DHT22;8258;51.020;4.248;2022-12-07T13:57:13;7.20;99.90
16301;DHT22;8258;51.020;4.248;2022-12-07T13:59:40;7.30;99.90
16301;DHT22;8258;51.020;4.248;2022-12-07T14:02:18;7.40;99.90
16301;DHT22;8258;51.020;4.248;2022-12-07T14:04:45;7.40;99.90
16301;DHT22;8258;51.020;4.248;2022-12-07T14:07:23;7.40;99.90
16301;DHT22;8258;51.020;4.248;2022-12-07T14:09:58;7.40;99.90
16301;DHT22;8258;51.020;4.248;2022-12-07T14:12:29;7.50;99.90
16301;DHT22;8258;51.020;4.248;2022-12-07T14:14:57;7.60;99.90
16301;DHT22;8258;51.020;4.248;2022-12-07T14:17:26;7.60;99.90
16301;DHT22;8258;51.020;4.248;2022-12-07T14:19:54;7.50;99.90
16301;DHT22;8258;51.020;4.248;2022-12-07T14:22:27;7.60;99.90
16301;DHT22;8258;51.020;4.248;2022-12-07T14:25:15;7.60;99.90
16301;DHT22;8258;51.020;4.248;2022-12-07T14:27:53;7.60;99.90
16301;DHT22;8258;51.020;4.248;2022-12-07T14:30:22;7.40;99.90
16301;DHT22;8258;51.020;4.248;2022-12-07T14:32:53;7.40;99.90
16301;DHT22;8258;51.020;4.248;2022-12-07T14:35:20;7.30;99.90
16301;DHT22;8258;51.020;4.248;2022-12-07T14:37:48;7.30;99.90
16301;DHT22;8258;51.020;4.248;2022-12-07T14:40:18;7.20;99.90
16301;DHT22;8258;51.020;4.248;2022-12-07T14:42:48;7.20;99.90
16301;DHT22;8258;51.020;4.248;2022-12-07T14:45:18;7.30;99.90
16301;DHT22;8258;51.020;4.248;2022-12-07T14:47:46;7.30;99.90
16301;DHT22;8258;51.020;4.248;2022-12-07T14:50:14;7.40;99.90
16301;DHT22;8258;51.020;4.248;2022-12-07T14:52:43;7.20;99.90
16301;DHT22;8258;51.020;4.248;2022-12-07T14:55:16;7.20;99.90
16301;DHT22;8258;51.020;4.248;2022-12-07T14:57:44;7.20;99.90
16301;DHT22;8258;51.020;4.248;2022-12-07T15:00:17;7.20;99.90
16301;DHT22;8258;51.020;4.248;2022-12-07T15:02:45;7.20;99.90
16301;DHT22;8258;51.020;4.248;2022-12-07T15:05:12;7.20;99.90
16301;DHT22;8258;51.020;4.248;2022-12-07T15:07:39;7.10;99.90
16301;DHT22;8258;51.020;4.248;2022-12-07T15:10:13;7.10;99.90
16301;DHT22;8258;51.020;4.248;2022-12-07T15:12:41;7.00;99.90
16301;DHT22;8258;51.020;4.248;2022-12-07T15:15:08;6.90;99.90
16301;DHT22;8258;51.020;4.248;2022-12-07T15:17:37;6.90;99.90
16301;DHT22;8258;51.020;4.248;2022-12-07T15:20:05;6.90;99.90
16301;DHT22;8258;51.020;4.248;2022-12-07T15:22:32;6.70;99.90
16301;DHT22;8258;51.020;4.248;2022-12-07T15:24:59;6.70;99.90
16301;DHT22;8258;51.020;4.248;2022-12-07T15:27:27;6.70;99.90
16301;DHT22;8258;51.020;4.248;2022-12-07T15:29:54;6.60;99.90
16301;DHT22;8258;51.020;4.248;2022-12-07T15:32:21;6.60;99.90
16301;DHT22;8258;51.020;4.248;2022-12-07T15:34:49;6.70;99.90
16301;DHT22;8258;51.020;4.248;2022-12-07T15:37:16;6.60;99.90
16301;DHT22;8258;51.020;4.248;2022-12-07T15:39:43;6.60;99.90
16301;DHT22;8258;51.020;4.248;2022-12-07T15:42:10;6.60;99.90
16301;DHT22;8258;51.020;4.248;2022-12-07T15:44:37;6.50;99.90
16301;DHT22;8258;51.020;4.248;2022-12-07T15:47:21;6.50;99.90
16301;DHT22;8258;51.020;4.248;2022-12-07T15:49:49;6.40;99.90
16301;DHT22;8258;51.020;4.248;2022-12-07T15:52:16;6.40;99.90
16301;DHT22;8258;51.020;4.248;2022-12-07T15:54:44;6.30;99.90
16301;DHT22;8258;51.020;4.248;2022-12-07T15:57:12;6.40;99.90
16301;DHT22;8258;51.020;4.248;2022-12-07T15:59:39;6.40;99.90
16301;DHT22;8258;51.020;4.248;2022-12-07T16:02:08;6.40;99.90
16301;DHT22;8258;51.020;4.248;2022-12-07T16:04:35;6.40;99.90
16301;DHT22;8258;51.020;4.248;2022-12-07T16:07:04;6.40;99.90
16301;DHT22;8258;51.020;4.248;2022-12-07T16:09:31;6.30;99.90
16301;DHT22;8258;51.020;4.248;2022-12-07T16:11:58;6.20;99.90
16301;DHT22;8258;51.020;4.248;2022-12-07T16:14:24;6.10;99.90
16301;DHT22;8258;51.020;4.248;2022-12-07T16:16:51;6.10;99.90
16301;DHT22;8258;51.020;4.248;2022-12-07T16:19:18;6.10;99.90
16301;DHT22;8258;51.020;4.248;2022-12-07T16:21:45;6.20;99.90
16301;DHT22;8258;51.020;4.248;2022-12-07T16:24:14;6.10;99.90
16301;DHT22;8258;51.020;4.248;2022-12-07T16:26:42;6.10;99.90
16301;DHT22;8258;51.020;4.248;2022-12-07T16:29:11;6.00;99.90
16301;DHT22;8258;51.020;4.248;2022-12-07T16:31:39;6.00;99.90
16301;DHT22;8258;51.020;4.248;2022-12-07T16:34:06;5.90;99.90
16301;DHT22;8258;51.020;4.248;2022-12-07T16:36:33;5.80;99.90
16301;DHT22;8258;51.020;4.248;2022-12-07T16:39:01;5.80;99.90